Time;durP1;ratioP1;P1;durP2;ratioP2;P2;SDS_P1;SDS_P2;PMS_P1;PMS_P2;Temp;Humidity;BMP_temperature;BMP_pressure;BME280_temperature;BME280_humidity;BME280_pressure;Samples;Min_cycle;Max_cycle;Signal;HPM_P1;HPM_P2
2022/06/15 00:02:23;;;;;;;;;;;15.60;99.90;;;;;;5051441;28;19987;-67
2022/06/15 00:04:51;;;;;;;;;;;15.40;99.90;;;;;;5051500;28;19928;-66
2022/06/15 00:07:18;;;;;;;;;;;15.30;99.90;;;;;;5051532;28;19932;-68
2022/06/15 00:09:44;;;;;;;;;;;15.30;99.90;;;;;;5051685;28;19979;-68
2022/06/15 00:12:11;;;;;;;;;;;15.20;99.90;;;;;;5051550;28;20276;-68
2022/06/15 00:14:39;;;;;;;;;;;15.10;99.90;;;;;;5051487;28;20399;-68
2022/06/15 00:17:06;;;;;;;;;;;15.20;99.90;;;;;;5051336;28;19929;-68
2022/06/15 00:19:32;;;;;;;;;;;15.10;99.90;;;;;;5051665;28;19983;-69
2022/06/15 00:22:00;;;;;;;;;;;15.10;99.90;;;;;;5051520;28;19924;-69
2022/06/15 00:24:27;;;;;;;;;;;15.20;99.90;;;;;;5051323;28;19936;-69
2022/06/15 00:26:54;;;;;;;;;;;15.20;99.90;;;;;;5053538;28;19925;-69
2022/06/15 00:29:21;;;;;;;;;;;15.10;99.90;;;;;;5054998;28;19925;-70
2022/06/15 00:31:47;;;;;;;;;;;14.90;99.90;;;;;;5055203;28;19979;-67
2022/06/15 00:34:14;;;;;;;;;;;15.00;99.90;;;;;;5055259;28;19924;-67
2022/06/15 00:36:41;;;;;;;;;;;14.80;99.90;;;;;;5054977;28;20269;-67
2022/06/15 00:39:09;;;;;;;;;;;14.90;99.90;;;;;;5055133;28;20015;-67
2022/06/15 00:41:38;;;;;;;;;;;15.00;99.90;;;;;;5054808;28;19932;-67
2022/06/15 00:44:19;;;;;;;;;;;15.00;99.90;;;;;;5055056;28;19978;-67
2022/06/15 00:46:47;;;;;;;;;;;14.90;99.90;;;;;;5053693;28;19928;-67
2022/06/15 00:49:17;;;;;;;;;;;14.90;99.90;;;;;;5054768;28;20396;-67
2022/06/15 00:51:44;;;;;;;;;;;14.90;99.90;;;;;;5054898;28;19928;-67
2022/06/15 00:54:13;;;;;;;;;;;14.90;99.90;;;;;;5054717;28;19928;-69
2022/06/15 00:56:40;;;;;;;;;;;14.90;99.90;;;;;;5054730;28;19924;-67
2022/06/15 00:59:09;;;;;;;;;;;14.80;99.90;;;;;;5054588;28;20462;-69
2022/06/15 01:01:36;;;;;;;;;;;14.80;99.90;;;;;;5054875;28;20372;-69
2022/06/15 01:04:05;;;;;;;;;;;14.70;99.90;;;;;;5054513;28;19932;-69
2022/06/15 01:06:37;;;;;;;;;;;14.70;99.90;;;;;;5054279;28;19936;-68
2022/06/15 01:09:07;;;;;;;;;;;14.70;99.90;;;;;;5054274;28;19929;-70
2022/06/15 01:11:40;;;;;;;;;;;14.60;99.90;;;;;;5054373;28;19970;-69
2022/06/15 01:14:22;;;;;;;;;;;14.40;99.90;;;;;;5054304;28;20351;-69
2022/06/15 01:16:55;;;;;;;;;;;14.50;99.90;;;;;;5054705;28;20323;-69
2022/06/15 01:19:46;;;;;;;;;;;14.40;99.90;;;;;;5054068;28;20335;-69
2022/06/15 01:22:19;;;;;;;;;;;14.40;99.90;;;;;;5038710;28;19980;-69
2022/06/15 01:24:59;;;;;;;;;;;14.50;99.90;;;;;;5054059;28;19979;-69
2022/06/15 01:27:38;;;;;;;;;;;14.60;99.90;;;;;;5054085;28;19979;-69
2022/06/15 01:30:20;;;;;;;;;;;14.40;99.90;;;;;;5053886;28;19928;-69
2022/06/15 01:32:53;;;;;;;;;;;14.40;99.90;;;;;;5054337;28;19928;-69
2022/06/15 01:35:23;;;;;;;;;;;14.30;99.90;;;;;;5053936;28;20150;-69
2022/06/15 01:37:55;;;;;;;;;;;14.20;99.90;;;;;;5053866;28;19925;-68
2022/06/15 01:40:26;;;;;;;;;;;14.20;99.90;;;;;;5053929;28;20380;-68
2022/06/15 01:42:56;;;;;;;;;;;14.10;99.90;;;;;;5054202;28;19935;-69
2022/06/15 01:45:25;;;;;;;;;;;14.10;99.90;;;;;;5053552;28;19928;-69
2022/06/15 01:47:53;;;;;;;;;;;14.10;99.90;;;;;;5053847;28;19924;-69
2022/06/15 01:50:22;;;;;;;;;;;14.00;99.90;;;;;;5053596;28;19924;-69
2022/06/15 01:52:50;;;;;;;;;;;14.00;99.90;;;;;;5053571;28;19964;-69
2022/06/15 01:55:20;;;;;;;;;;;14.10;99.90;;;;;;5053425;28;19971;-67
2022/06/15 01:57:47;;;;;;;;;;;14.20;99.90;;;;;;5053554;28;19995;-67
2022/06/15 02:00:16;;;;;;;;;;;14.20;99.90;;;;;;5053287;28;19928;-67
2022/06/15 02:02:48;;;;;;;;;;;14.10;99.90;;;;;;5053477;28;19988;-67
2022/06/15 02:05:17;;;;;;;;;;;14.00;99.90;;;;;;5053004;28;20332;-67
2022/06/15 02:07:48;;;;;;;;;;;14.10;99.90;;;;;;5053319;28;19925;-67
2022/06/15 02:10:19;;;;;;;;;;;14.00;99.90;;;;;;5053609;28;19974;-67
2022/06/15 02:12:47;;;;;;;;;;;14.00;99.90;;;;;;5053301;28;20404;-67
2022/06/15 02:15:16;;;;;;;;;;;13.90;99.90;;;;;;5053036;28;19994;-67
2022/06/15 02:17:44;;;;;;;;;;;14.00;99.90;;;;;;5053121;28;19928;-67
2022/06/15 02:20:15;;;;;;;;;;;13.90;99.90;;;;;;5053029;28;19986;-67
2022/06/15 02:22:42;;;;;;;;;;;13.80;99.90;;;;;;5053025;28;19983;-67
2022/06/15 02:25:12;;;;;;;;;;;14.00;99.90;;;;;;5052632;28;19924;-67
2022/06/15 02:27:40;;;;;;;;;;;13.90;99.90;;;;;;5053337;28;20002;-69
2022/06/15 02:30:11;;;;;;;;;;;13.90;99.90;;;;;;5052839;28;19925;-69
2022/06/15 02:32:38;;;;;;;;;;;13.80;99.90;;;;;;5053035;28;19990;-69
2022/06/15 02:35:05;;;;;;;;;;;13.70;99.90;;;;;;5052580;28;19929;-69
2022/06/15 02:37:34;;;;;;;;;;;13.70;99.90;;;;;;5052938;28;19932;-69
2022/06/15 02:40:00;;;;;;;;;;;13.70;99.90;;;;;;5052713;28;19943;-67
2022/06/15 02:42:29;;;;;;;;;;;13.60;99.90;;;;;;5052638;28;19978;-67
2022/06/15 02:44:57;;;;;;;;;;;13.50;99.90;;;;;;5052297;28;19925;-67
2022/06/15 02:47:25;;;;;;;;;;;13.50;99.90;;;;;;5052528;28;19925;-67
2022/06/15 02:49:52;;;;;;;;;;;13.50;99.90;;;;;;5051938;28;19970;-67
2022/06/15 02:52:20;;;;;;;;;;;13.40;99.90;;;;;;5052552;28;19928;-67
2022/06/15 02:54:50;;;;;;;;;;;13.40;99.90;;;;;;5052197;28;19924;-67
2022/06/15 02:57:17;;;;;;;;;;;13.40;99.90;;;;;;5052364;28;20320;-67
2022/06/15 02:59:45;;;;;;;;;;;13.40;99.90;;;;;;5052285;28;19929;-67
2022/06/15 03:02:14;;;;;;;;;;;13.40;99.90;;;;;;5052540;28;20032;-67
2022/06/15 03:04:41;;;;;;;;;;;13.40;99.90;;;;;;5052453;28;19924;-67
2022/06/15 03:07:08;;;;;;;;;;;13.30;99.90;;;;;;5052304;28;19929;-67
2022/06/15 03:09:34;;;;;;;;;;;13.20;99.90;;;;;;5052225;28;19970;-67
2022/06/15 03:12:03;;;;;;;;;;;13.10;99.90;;;;;;5052160;28;19929;-67
2022/06/15 03:14:30;;;;;;;;;;;13.20;99.90;;;;;;5052057;28;19928;-69
2022/06/15 03:16:57;;;;;;;;;;;13.10;99.90;;;;;;5052183;28;19925;-67
2022/06/15 03:19:24;;;;;;;;;;;13.20;99.90;;;;;;5051807;28;19924;-67
2022/06/15 03:21:51;;;;;;;;;;;13.10;99.90;;;;;;5052168;28;19932;-67
2022/06/15 03:24:18;;;;;;;;;;;13.30;99.90;;;;;;5051958;28;19970;-67
2022/06/15 03:26:45;;;;;;;;;;;13.30;99.90;;;;;;5051844;28;19925;-69
2022/06/15 03:29:13;;;;;;;;;;;13.20;99.90;;;;;;5051929;28;19925;-69
2022/06/15 03:31:40;;;;;;;;;;;13.10;99.90;;;;;;5051762;28;19924;-69
2022/06/15 03:34:07;;;;;;;;;;;13.10;99.90;;;;;;5051856;28;19929;-67
2022/06/15 03:36:34;;;;;;;;;;;13.20;99.90;;;;;;5051558;28;19933;-67
2022/06/15 03:39:00;;;;;;;;;;;13.40;99.90;;;;;;5051988;28;20011;-67
2022/06/15 03:41:27;;;;;;;;;;;13.30;99.90;;;;;;5051674;28;19925;-67
2022/06/15 03:43:54;;;;;;;;;;;13.20;99.90;;;;;;5051533;28;19925;-67
2022/06/15 03:46:23;;;;;;;;;;;13.20;99.90;;;;;;5051959;28;19925;-67
2022/06/15 03:48:50;;;;;;;;;;;13.30;99.90;;;;;;5051605;28;19929;-67
2022/06/15 03:51:17;;;;;;;;;;;13.40;99.90;;;;;;5051508;28;19979;-69
2022/06/15 03:53:44;;;;;;;;;;;13.30;99.90;;;;;;5051791;28;19936;-69
2022/06/15 03:56:10;;;;;;;;;;;13.30;99.90;;;;;;5051417;28;19951;-69
2022/06/15 03:58:37;;;;;;;;;;;13.30;99.90;;;;;;5052069;28;19983;-69
2022/06/15 04:01:04;;;;;;;;;;;13.30;99.90;;;;;;5052011;28;19930;-69
2022/06/15 04:03:32;;;;;;;;;;;13.50;99.90;;;;;;5055473;28;19978;-69
2022/06/15 04:06:00;;;;;;;;;;;13.50;99.90;;;;;;5055598;28;20020;-69
2022/06/15 04:08:35;;;;;;;;;;;13.30;99.90;;;;;;5055763;28;19951;-69
2022/06/15 04:11:02;;;;;;;;;;;13.50;99.90;;;;;;5055521;28;19927;-67
2022/06/15 04:13:29;;;;;;;;;;;13.40;99.90;;;;;;5055549;28;19929;-68
2022/06/15 04:15:56;;;;;;;;;;;13.30;99.90;;;;;;5055235;28;19929;-67
2022/06/15 04:18:23;;;;;;;;;;;13.40;99.90;;;;;;5055325;28;20431;-67
2022/06/15 04:20:51;;;;;;;;;;;13.50;99.90;;;;;;5055129;28;20015;-67
2022/06/15 04:23:19;;;;;;;;;;;13.50;99.90;;;;;;5055271;28;19986;-67
2022/06/15 04:25:46;;;;;;;;;;;13.40;99.90;;;;;;5055376;28;19925;-67
2022/06/15 04:28:14;;;;;;;;;;;13.50;99.90;;;;;;5055110;28;19947;-71
2022/06/15 04:30:41;;;;;;;;;;;13.60;99.90;;;;;;5055088;28;19924;-68
2022/06/15 04:33:09;;;;;;;;;;;13.60;99.90;;;;;;5055008;28;20400;-67
2022/06/15 04:35:36;;;;;;;;;;;13.70;99.90;;;;;;5055126;28;19932;-67
2022/06/15 04:38:06;;;;;;;;;;;13.70;99.90;;;;;;5055034;28;19925;-70
2022/06/15 04:40:33;;;;;;;;;;;13.70;99.90;;;;;;5055020;28;19924;-70
2022/06/15 04:43:00;;;;;;;;;;;13.80;99.90;;;;;;5054871;28;19970;-69
2022/06/15 04:45:26;;;;;;;;;;;13.80;99.90;;;;;;5054733;28;20364;-69
2022/06/15 04:47:53;;;;;;;;;;;13.90;99.90;;;;;;5054849;28;19929;-69
2022/06/15 04:50:20;;;;;;;;;;;13.90;99.90;;;;;;5054760;28;19971;-69
2022/06/15 04:52:47;;;;;;;;;;;14.00;99.90;;;;;;5054973;28;19925;-69
2022/06/15 04:55:18;;;;;;;;;;;14.00;99.90;;;;;;5054331;28;19924;-67
2022/06/15 04:57:45;;;;;;;;;;;14.10;99.90;;;;;;5055089;28;20569;-67
2022/06/15 05:00:14;;;;;;;;;;;14.10;99.90;;;;;;5054422;28;19924;-67
2022/06/15 05:02:41;;;;;;;;;;;14.20;99.90;;;;;;5054393;28;19925;-67
2022/06/15 05:05:08;;;;;;;;;;;14.30;99.90;;;;;;5054193;28;19925;-67
2022/06/15 05:07:35;;;;;;;;;;;14.30;99.90;;;;;;5054345;28;19929;-70
2022/06/15 05:10:02;;;;;;;;;;;14.40;99.90;;;;;;5054340;28;19925;-69
2022/06/15 05:12:30;;;;;;;;;;;14.30;99.90;;;;;;5054074;28;19932;-69
2022/06/15 05:14:57;;;;;;;;;;;14.30;99.90;;;;;;5054003;28;20384;-67
2022/06/15 05:17:25;;;;;;;;;;;14.40;99.90;;;;;;5054236;28;19928;-69
2022/06/15 05:19:52;;;;;;;;;;;14.40;99.90;;;;;;5054222;28;19931;-70
2022/06/15 05:22:19;;;;;;;;;;;14.40;99.90;;;;;;5054026;28;20289;-67
2022/06/15 05:24:45;;;;;;;;;;;14.50;99.90;;;;;;5053983;28;19925;-67
2022/06/15 05:27:12;;;;;;;;;;;14.60;99.90;;;;;;5054266;28;20292;-70
2022/06/15 05:29:40;;;;;;;;;;;14.70;99.90;;;;;;5054015;28;19925;-69
2022/06/15 05:32:08;;;;;;;;;;;14.80;99.90;;;;;;5053914;28;20348;-70
2022/06/15 05:34:35;;;;;;;;;;;14.80;99.90;;;;;;5053886;28;19941;-70
2022/06/15 05:37:02;;;;;;;;;;;14.70;99.90;;;;;;5053793;28;19925;-69
2022/06/15 05:39:29;;;;;;;;;;;14.90;99.90;;;;;;5053792;28;19931;-69
2022/06/15 05:41:56;;;;;;;;;;;14.90;99.90;;;;;;5053869;28;19936;-70
2022/06/15 05:44:26;;;;;;;;;;;15.00;99.90;;;;;;5053773;28;19979;-69
2022/06/15 05:46:57;;;;;;;;;;;15.10;99.90;;;;;;5053657;28;19956;-70
2022/06/15 05:49:24;;;;;;;;;;;15.20;99.90;;;;;;5053566;28;20019;-67
2022/06/15 05:51:51;;;;;;;;;;;15.30;99.90;;;;;;5053527;28;19924;-67
2022/06/15 05:54:18;;;;;;;;;;;15.40;99.90;;;;;;5053559;28;19928;-68
2022/06/15 05:56:45;;;;;;;;;;;15.50;99.90;;;;;;5053583;28;19925;-67
2022/06/15 05:59:11;;;;;;;;;;;15.60;99.90;;;;;;5053416;28;19959;-67
2022/06/15 06:01:39;;;;;;;;;;;15.70;99.90;;;;;;5053414;28;20325;-67
2022/06/15 06:04:07;;;;;;;;;;;15.80;99.90;;;;;;5053181;28;20301;-67
2022/06/15 06:06:34;;;;;;;;;;;16.00;99.90;;;;;;5053281;28;19929;-67
2022/06/15 06:09:01;;;;;;;;;;;16.10;99.90;;;;;;5053267;28;19978;-70
2022/06/15 06:11:28;;;;;;;;;;;16.10;99.90;;;;;;5053136;28;19924;-69
2022/06/15 06:13:55;;;;;;;;;;;16.30;99.90;;;;;;5053089;28;19924;-69
2022/06/15 06:16:21;;;;;;;;;;;16.40;99.90;;;;;;5052750;28;20459;-70
2022/06/15 06:18:50;;;;;;;;;;;16.60;99.90;;;;;;5052903;28;19925;-69
2022/06/15 06:21:18;;;;;;;;;;;16.70;99.90;;;;;;5052896;28;19947;-69
2022/06/15 06:23:46;;;;;;;;;;;16.70;99.90;;;;;;5052158;28;20377;-69
2022/06/15 06:26:16;;;;;;;;;;;17.00;99.90;;;;;;5052642;28;19931;-69
2022/06/15 06:28:43;;;;;;;;;;;17.10;99.90;;;;;;5052873;28;19929;-69
2022/06/15 06:31:11;;;;;;;;;;;17.30;99.90;;;;;;5052549;28;19979;-69
2022/06/15 06:33:38;;;;;;;;;;;17.40;99.90;;;;;;5052995;28;20022;-69
2022/06/15 06:36:07;;;;;;;;;;;17.50;99.90;;;;;;5052818;28;20005;-69
2022/06/15 06:38:36;;;;;;;;;;;17.80;99.90;;;;;;5052792;28;19929;-69
2022/06/15 06:41:03;;;;;;;;;;;18.10;99.90;;;;;;5052716;28;19924;-69
2022/06/15 06:43:29;;;;;;;;;;;18.40;99.70;;;;;;5052480;28;19929;-69
2022/06/15 06:45:56;;;;;;;;;;;18.50;99.10;;;;;;5052326;28;19986;-70
2022/06/15 06:48:23;;;;;;;;;;;18.70;99.00;;;;;;5052534;28;20397;-70
2022/06/15 06:50:52;;;;;;;;;;;18.70;98.90;;;;;;5052569;28;20385;-69
2022/06/15 06:53:18;;;;;;;;;;;18.80;99.10;;;;;;5052555;28;19925;-69
2022/06/15 06:55:47;;;;;;;;;;;19.00;98.70;;;;;;5052240;28;20169;-69
2022/06/15 06:58:13;;;;;;;;;;;19.10;98.20;;;;;;5052379;28;19996;-70
2022/06/15 07:00:40;;;;;;;;;;;19.20;98.10;;;;;;5052143;28;19925;-70
2022/06/15 07:03:07;;;;;;;;;;;19.30;98.40;;;;;;5052234;28;19970;-69
2022/06/15 07:05:34;;;;;;;;;;;19.60;98.10;;;;;;5052143;28;19929;-69
2022/06/15 07:08:00;;;;;;;;;;;19.90;97.70;;;;;;5052297;28;20351;-69
2022/06/15 07:10:27;;;;;;;;;;;20.10;97.50;;;;;;5052209;28;20002;-69
2022/06/15 07:12:55;;;;;;;;;;;20.10;97.50;;;;;;5052183;28;19983;-69
2022/06/15 07:15:22;;;;;;;;;;;20.20;97.40;;;;;;5051974;28;19971;-69
2022/06/15 07:17:49;;;;;;;;;;;20.40;97.40;;;;;;5052203;28;19924;-69
2022/06/15 07:20:16;;;;;;;;;;;20.40;97.20;;;;;;5052185;28;19928;-69
2022/06/15 07:22:43;;;;;;;;;;;20.30;97.20;;;;;;5052142;28;19928;-69
2022/06/15 07:25:10;;;;;;;;;;;20.30;97.30;;;;;;5051681;28;19924;-69
2022/06/15 07:27:38;;;;;;;;;;;20.50;97.20;;;;;;5051949;28;19947;-69
2022/06/15 07:30:09;;;;;;;;;;;20.70;97.20;;;;;;5051709;28;19936;-69
2022/06/15 07:32:37;;;;;;;;;;;20.90;97.50;;;;;;5052035;28;20308;-70
2022/06/15 07:35:04;;;;;;;;;;;21.10;96.70;;;;;;5051682;28;19929;-70
2022/06/15 07:37:31;;;;;;;;;;;21.00;96.70;;;;;;5051923;28;19986;-69
2022/06/15 07:39:58;;;;;;;;;;;21.10;96.90;;;;;;5051726;28;19982;-70
2022/06/15 07:42:25;;;;;;;;;;;21.30;96.30;;;;;;5051936;28;19948;-70
2022/06/15 07:44:52;;;;;;;;;;;21.30;96.70;;;;;;5051409;28;19975;-69
2022/06/15 07:50:05;;;;;;;;;;;21.60;95.90;;;;;;5051779;28;20319;-70
2022/06/15 07:52:34;;;;;;;;;;;21.70;95.90;;;;;;5052091;28;19932;-69
2022/06/15 07:55:01;;;;;;;;;;;21.90;95.80;;;;;;5051706;28;19929;-69
2022/06/15 07:57:28;;;;;;;;;;;21.80;95.60;;;;;;5051835;28;19932;-68
2022/06/15 07:59:55;;;;;;;;;;;22.70;94.70;;;;;;5051624;28;19975;-68
2022/06/15 08:02:23;;;;;;;;;;;22.80;94.10;;;;;;5051979;28;19932;-68
2022/06/15 08:04:50;;;;;;;;;;;22.50;94.20;;;;;;5051628;28;20016;-69
2022/06/15 08:07:17;;;;;;;;;;;22.50;94.00;;;;;;5051867;28;19925;-68
2022/06/15 08:09:44;;;;;;;;;;;22.60;94.00;;;;;;5051509;28;19925;-68
2022/06/15 08:12:16;;;;;;;;;;;22.90;93.90;;;;;;5051600;28;19925;-67
2022/06/15 08:14:45;;;;;;;;;;;23.30;93.40;;;;;;5051623;28;19960;-69
2022/06/15 08:17:13;;;;;;;;;;;23.90;93.10;;;;;;5051503;28;19924;-67
2022/06/15 08:19:44;;;;;;;;;;;23.30;92.60;;;;;;5051841;28;19925;-67
2022/06/15 08:22:11;;;;;;;;;;;23.50;93.40;;;;;;5051549;28;19924;-66
2022/06/15 08:24:38;;;;;;;;;;;23.70;92.40;;;;;;5051175;28;19955;-66
2022/06/15 08:27:05;;;;;;;;;;;24.40;91.90;;;;;;5051414;28;19928;-67
2022/06/15 08:29:33;;;;;;;;;;;24.50;91.60;;;;;;5051698;28;19925;-66
2022/06/15 08:32:00;;;;;;;;;;;23.90;92.00;;;;;;5051102;28;19971;-67
2022/06/15 08:34:28;;;;;;;;;;;24.10;91.70;;;;;;5051224;28;19935;-66
2022/06/15 08:36:56;;;;;;;;;;;24.20;91.40;;;;;;5051257;28;19931;-67
2022/06/15 08:39:23;;;;;;;;;;;24.40;91.50;;;;;;5051133;28;19986;-67
2022/06/15 08:41:53;;;;;;;;;;;25.40;90.40;;;;;;5050957;28;19925;-67
2022/06/15 08:44:26;;;;;;;;;;;25.30;89.80;;;;;;5050497;28;19925;-67
2022/06/15 08:46:57;;;;;;;;;;;24.80;90.60;;;;;;5050981;28;19933;-67
2022/06/15 08:49:34;;;;;;;;;;;24.80;89.30;;;;;;5054749;28;19928;-67
2022/06/15 08:52:03;;;;;;;;;;;25.70;88.20;;;;;;5054470;28;19978;-67
2022/06/15 08:54:32;;;;;;;;;;;26.60;87.70;;;;;;5054617;28;19928;-67
2022/06/15 08:57:02;;;;;;;;;;;26.60;87.10;;;;;;5054493;28;19931;-67
2022/06/15 08:59:36;;;;;;;;;;;26.60;86.50;;;;;;5054312;28;20278;-67
2022/06/15 09:02:06;;;;;;;;;;;28.00;83.70;;;;;;5054579;28;20286;-67
2022/06/15 09:04:38;;;;;;;;;;;27.30;83.40;;;;;;5054745;28;20285;-67
2022/06/15 09:07:16;;;;;;;;;;;27.80;81.30;;;;;;5054250;28;19929;-67
2022/06/15 09:09:48;;;;;;;;;;;27.60;80.70;;;;;;5054451;28;19929;-67
2022/06/15 09:15:10;;;;;;;;;;;26.90;82.10;;;;;;5054246;28;19931;-67
2022/06/15 09:17:37;;;;;;;;;;;27.30;81.70;;;;;;5054619;28;19925;-67
2022/06/15 09:20:06;;;;;;;;;;;29.20;79.60;;;;;;5054252;28;20459;-67
2022/06/15 09:22:36;;;;;;;;;;;29.30;77.50;;;;;;5054333;28;19929;-67
2022/06/15 09:25:08;;;;;;;;;;;30.10;76.10;;;;;;5054156;28;20270;-69
2022/06/15 09:27:37;;;;;;;;;;;29.50;76.20;;;;;;5054484;28;19925;-69
2022/06/15 09:30:05;;;;;;;;;;;30.80;75.10;;;;;;5054404;28;19925;-69
2022/06/15 09:32:33;;;;;;;;;;;31.40;74.00;;;;;;5054222;28;19925;-69
2022/06/15 09:35:03;;;;;;;;;;;29.70;72.20;;;;;;5053845;28;19971;-68
2022/06/15 09:37:31;;;;;;;;;;;30.00;72.40;;;;;;5054024;28;20384;-69
2022/06/15 09:40:00;;;;;;;;;;;29.70;72.80;;;;;;5053843;28;19974;-69
2022/06/15 09:42:32;;;;;;;;;;;29.70;74.00;;;;;;5053741;28;19932;-69
2022/06/15 09:45:02;;;;;;;;;;;29.90;72.50;;;;;;5053588;28;19929;-69
2022/06/15 09:47:37;;;;;;;;;;;30.20;70.90;;;;;;5053641;28;19925;-69
2022/06/15 09:50:12;;;;;;;;;;;30.30;69.60;;;;;;5053719;28;19931;-69
2022/06/15 09:52:44;;;;;;;;;;;29.70;69.70;;;;;;5053427;28;19971;-69
2022/06/15 09:55:16;;;;;;;;;;;30.80;70.40;;;;;;5053562;28;19932;-69
2022/06/15 09:57:43;;;;;;;;;;;30.00;72.40;;;;;;5053699;28;20269;-69
2022/06/15 10:00:14;;;;;;;;;;;29.50;73.50;;;;;;5053365;28;19925;-68
2022/06/15 10:02:44;;;;;;;;;;;29.80;73.00;;;;;;5053432;28;19932;-68
2022/06/15 10:05:16;;;;;;;;;;;29.50;72.50;;;;;;5053171;28;20026;-69
2022/06/15 10:07:45;;;;;;;;;;;31.40;71.20;;;;;;5053429;28;19925;-69
2022/06/15 10:10:18;;;;;;;;;;;31.80;66.90;;;;;;5053250;28;19925;-69
2022/06/15 10:12:57;;;;;;;;;;;31.70;68.60;;;;;;5053246;28;20282;-67
2022/06/15 10:15:26;;;;;;;;;;;32.40;67.60;;;;;;5053093;28;19925;-67
2022/06/15 10:17:54;;;;;;;;;;;32.20;68.70;;;;;;5053073;28;19924;-67
2022/06/15 10:20:23;;;;;;;;;;;31.50;68.80;;;;;;5053090;28;19932;-67
2022/06/15 10:22:52;;;;;;;;;;;31.30;68.40;;;;;;5053186;28;19924;-67
2022/06/15 10:25:21;;;;;;;;;;;30.60;65.80;;;;;;5052612;28;19935;-67
2022/06/15 10:27:48;;;;;;;;;;;30.20;64.60;;;;;;5052987;28;19925;-67
2022/06/15 10:30:17;;;;;;;;;;;30.90;67.70;;;;;;5052604;28;19999;-67
2022/06/15 10:32:57;;;;;;;;;;;30.30;65.80;;;;;;5052857;28;20324;-66
2022/06/15 10:35:25;;;;;;;;;;;30.60;65.70;;;;;;5052659;28;19924;-67
2022/06/15 10:37:53;;;;;;;;;;;31.50;66.30;;;;;;5052866;28;19974;-67
2022/06/15 10:40:23;;;;;;;;;;;31.80;66.70;;;;;;5052578;28;19978;-67
2022/06/15 10:42:53;;;;;;;;;;;30.90;67.80;;;;;;5052637;28;19928;-66
2022/06/15 10:45:22;;;;;;;;;;;32.20;67.00;;;;;;5052378;28;19936;-66
2022/06/15 10:47:52;;;;;;;;;;;31.60;66.90;;;;;;5052901;28;19924;-67
2022/06/15 10:50:23;;;;;;;;;;;32.10;64.90;;;;;;5052442;28;19986;-66
2022/06/15 10:52:53;;;;;;;;;;;32.50;66.50;;;;;;5052719;28;19929;-67
2022/06/15 11:04:06;;;;;;;;;;;31.70;64.70;;;;;;5052371;28;20304;-68
2022/06/15 11:06:37;;;;;;;;;;;33.70;64.20;;;;;;5052153;28;19929;-68
2022/06/15 11:09:04;;;;;;;;;;;34.60;62.80;;;;;;5052274;28;19963;-67
2022/06/15 11:11:31;;;;;;;;;;;33.80;60.00;;;;;;5052188;28;19925;-67
2022/06/15 11:14:06;;;;;;;;;;;33.70;59.40;;;;;;5052293;28;19960;-67
2022/06/15 11:19:19;;;;;;;;;;;33.00;57.60;;;;;;5052269;28;20054;-67
2022/06/15 11:21:48;;;;;;;;;;;32.40;57.10;;;;;;5052350;28;20289;-69
2022/06/15 11:24:23;;;;;;;;;;;32.80;60.40;;;;;;5052257;28;19925;-69
2022/06/15 11:26:53;;;;;;;;;;;35.00;58.60;;;;;;5052410;28;19928;-69
2022/06/15 11:29:28;;;;;;;;;;;36.60;58.00;;;;;;5052167;28;19946;-67
2022/06/15 11:31:56;;;;;;;;;;;35.20;58.00;;;;;;5052695;28;20377;-67
2022/06/15 11:34:26;;;;;;;;;;;35.70;58.20;;;;;;5052188;28;20448;-68
2022/06/15 11:36:55;;;;;;;;;;;33.60;58.90;;;;;;5052009;28;19925;-68
2022/06/15 11:39:24;;;;;;;;;;;32.80;60.40;;;;;;5051778;28;19928;-68
2022/06/15 11:41:52;;;;;;;;;;;33.60;60.40;;;;;;5052133;28;19986;-67
2022/06/15 11:44:21;;;;;;;;;;;35.80;58.40;;;;;;5051990;28;19925;-68
2022/06/15 11:46:56;;;;;;;;;;;33.40;59.80;;;;;;5051708;28;20277;-67
2022/06/15 11:49:29;;;;;;;;;;;32.90;59.00;;;;;;5051699;28;19925;-67
2022/06/15 11:52:01;;;;;;;;;;;32.20;59.10;;;;;;5051947;28;19925;-67
2022/06/15 11:54:43;;;;;;;;;;;33.00;60.10;;;;;;5051931;28;19979;-67
2022/06/15 11:57:15;;;;;;;;;;;33.80;57.70;;;;;;5049431;28;19993;-67
2022/06/15 11:59:46;;;;;;;;;;;34.80;57.50;;;;;;5051532;28;19925;-68
2022/06/15 12:02:18;;;;;;;;;;;36.20;57.10;;;;;;5051605;28;19925;-68
2022/06/15 12:04:51;;;;;;;;;;;36.30;57.30;;;;;;5051677;28;20340;-67
2022/06/15 12:07:24;;;;;;;;;;;37.30;56.40;;;;;;5051665;28;19924;-68
2022/06/15 12:09:56;;;;;;;;;;;36.40;56.10;;;;;;5051641;28;19936;-68
2022/06/15 12:15:13;;;;;;;;;;;34.50;57.60;;;;;;5047868;28;19927;-68
2022/06/15 12:17:45;;;;;;;;;;;34.50;58.70;;;;;;5051657;28;19935;-67
2022/06/15 12:20:18;;;;;;;;;;;33.40;59.60;;;;;;5051782;28;19978;-67
2022/06/15 12:22:48;;;;;;;;;;;34.00;59.00;;;;;;5053215;28;19924;-70
2022/06/15 12:25:18;;;;;;;;;;;33.80;59.20;;;;;;5055324;28;19979;-70
2022/06/15 12:27:49;;;;;;;;;;;34.00;59.30;;;;;;5055811;28;19925;-69
2022/06/15 12:30:20;;;;;;;;;;;33.80;60.00;;;;;;5055219;28;20359;-69
2022/06/15 12:32:55;;;;;;;;;;;35.10;58.70;;;;;;5055256;28;19929;-70
2022/06/15 12:35:26;;;;;;;;;;;34.60;59.90;;;;;;5055513;28;19925;-68
2022/06/15 12:37:57;;;;;;;;;;;34.80;59.40;;;;;;5054975;28;19924;-68
2022/06/15 12:40:29;;;;;;;;;;;34.10;60.50;;;;;;5055264;28;19971;-68
2022/06/15 12:42:58;;;;;;;;;;;34.50;61.10;;;;;;5055047;28;19932;-67
2022/06/15 12:45:27;;;;;;;;;;;33.90;61.40;;;;;;5054528;28;19928;-67
2022/06/15 12:47:57;;;;;;;;;;;34.20;61.30;;;;;;5054885;28;19925;-68
2022/06/15 12:50:39;;;;;;;;;;;34.00;61.50;;;;;;5054724;28;19931;-67
2022/06/15 12:53:09;;;;;;;;;;;34.40;61.00;;;;;;5055194;28;19976;-67
2022/06/15 12:55:38;;;;;;;;;;;35.60;60.30;;;;;;5055116;28;20147;-69
2022/06/15 12:58:11;;;;;;;;;;;36.00;59.60;;;;;;5054761;28;19982;-69
2022/06/15 13:00:39;;;;;;;;;;;35.80;58.40;;;;;;5054737;28;19928;-70
2022/06/15 13:03:15;;;;;;;;;;;35.70;59.60;;;;;;5054614;28;19978;-69
2022/06/15 13:05:41;;;;;;;;;;;36.40;57.70;;;;;;5054456;28;19982;-69
2022/06/15 13:08:24;;;;;;;;;;;36.40;57.80;;;;;;5054502;28;20343;-68
2022/06/15 13:11:06;;;;;;;;;;;35.10;58.40;;;;;;5054756;28;20231;-70
2022/06/15 13:13:34;;;;;;;;;;;34.50;59.80;;;;;;5052183;28;19925;-68
2022/06/15 13:16:07;;;;;;;;;;;35.10;59.00;;;;;;5054170;28;19971;-68
2022/06/15 13:18:41;;;;;;;;;;;34.60;60.70;;;;;;5054545;28;19932;-68
2022/06/15 13:21:08;;;;;;;;;;;33.40;59.80;;;;;;5054069;28;20385;-68
2022/06/15 13:23:38;;;;;;;;;;;35.10;59.30;;;;;;5054357;28;19925;-68
2022/06/15 13:26:10;;;;;;;;;;;34.30;59.20;;;;;;5053815;28;19940;-68
2022/06/15 13:28:38;;;;;;;;;;;35.00;59.90;;;;;;5054137;28;19971;-71
2022/06/15 13:31:06;;;;;;;;;;;33.80;60.90;;;;;;5054039;28;19928;-70
2022/06/15 13:33:51;;;;;;;;;;;34.40;59.80;;;;;;5053575;28;19924;-70
2022/06/15 13:36:21;;;;;;;;;;;36.40;59.60;;;;;;5053749;28;19979;-70
2022/06/15 13:38:49;;;;;;;;;;;37.70;57.80;;;;;;5053903;28;19932;-68
2022/06/15 13:41:21;;;;;;;;;;;37.50;57.30;;;;;;5053746;28;19931;-70
2022/06/15 13:44:07;;;;;;;;;;;37.40;58.10;;;;;;5053747;28;20347;-70
2022/06/15 13:46:37;;;;;;;;;;;37.90;57.80;;;;;;5053531;28;20476;-70
2022/06/15 13:49:06;;;;;;;;;;;38.10;57.70;;;;;;5053679;28;19928;-68
2022/06/15 13:51:37;;;;;;;;;;;37.80;56.60;;;;;;5053933;28;19925;-68
2022/06/15 13:54:12;;;;;;;;;;;35.80;57.80;;;;;;5053942;28;19987;-68
2022/06/15 13:56:44;;;;;;;;;;;34.20;59.40;;;;;;5053442;28;20447;-68
2022/06/15 13:59:16;;;;;;;;;;;33.40;60.30;;;;;;5053758;28;20389;-68
2022/06/15 14:01:52;;;;;;;;;;;34.10;59.70;;;;;;5053556;28;19970;-68
2022/06/15 14:04:22;;;;;;;;;;;36.40;58.60;;;;;;5053690;28;19933;-68
2022/06/15 14:06:59;;;;;;;;;;;36.20;59.30;;;;;;5053035;28;19925;-68
2022/06/15 14:09:33;;;;;;;;;;;35.50;59.60;;;;;;5053400;28;19925;-67
2022/06/15 14:12:11;;;;;;;;;;;33.90;60.70;;;;;;5053284;28;20015;-68
2022/06/15 14:14:48;;;;;;;;;;;33.60;60.50;;;;;;5053142;28;20455;-68
2022/06/15 14:17:30;;;;;;;;;;;33.70;59.70;;;;;;5053157;28;20047;-68
2022/06/15 14:19:59;;;;;;;;;;;33.00;62.20;;;;;;5040073;28;19925;-68
2022/06/15 14:22:27;;;;;;;;;;;33.30;63.20;;;;;;5053073;28;19925;-69
2022/06/15 14:25:01;;;;;;;;;;;33.50;61.90;;;;;;5052732;28;19925;-70
2022/06/15 14:27:30;;;;;;;;;;;34.60;59.90;;;;;;5052963;28;19925;-69
2022/06/15 14:29:58;;;;;;;;;;;33.40;60.60;;;;;;5052715;28;20316;-68
2022/06/15 14:32:26;;;;;;;;;;;34.40;60.80;;;;;;5053168;28;20019;-70
2022/06/15 14:34:52;;;;;;;;;;;35.80;59.10;;;;;;5052730;28;19929;-70
2022/06/15 14:37:20;;;;;;;;;;;36.50;59.00;;;;;;5052824;28;19925;-68
2022/06/15 14:39:49;;;;;;;;;;;34.70;59.40;;;;;;5052775;28;19925;-70
2022/06/15 14:42:17;;;;;;;;;;;34.00;61.00;;;;;;5052670;28;19974;-70
2022/06/15 14:44:44;;;;;;;;;;;33.30;60.80;;;;;;5051638;28;20304;-71
2022/06/15 14:47:12;;;;;;;;;;;33.20;60.60;;;;;;5052771;28;19983;-72
2022/06/15 14:49:41;;;;;;;;;;;33.10;61.90;;;;;;5052582;28;20344;-68